Time;durP1;ratioP1;P1;durP2;ratioP2;P2;SDS_P1;SDS_P2;PMS_P1;PMS_P2;Temp;Humidity;BMP_temperature;BMP_pressure;BME280_temperature;BME280_humidity;BME280_pressure;Samples;Min_cycle;Max_cycle;Signal;HPM_P1;HPM_P2
2022/06/24 00:01:40;;;;;;;0.00;0.00;;;19.80;99.90;;;;;;4999631;28;20637;-74
2022/06/24 00:04:08;;;;;;;0.00;0.00;;;19.70;99.90;;;;;;5001766;28;20529;-77
2022/06/24 00:06:47;;;;;;;0.00;0.00;;;19.70;99.90;;;;;;5000404;28;21130;-77
2022/06/24 00:09:17;;;;;;;0.00;0.00;;;19.70;99.90;;;;;;5000825;28;20448;-77
2022/06/24 00:11:46;;;;;;;0.00;0.00;;;19.70;99.90;;;;;;5000713;28;20597;-76
2022/06/24 00:14:15;;;;;;;0.00;0.00;;;19.70;99.90;;;;;;5001804;28;20454;-76
2022/06/24 00:16:54;;;;;;;0.00;0.00;;;19.70;99.90;;;;;;5003887;28;20474;-76
2022/06/24 00:19:24;;;;;;;0.00;0.00;;;19.70;99.90;;;;;;5002963;28;20446;-77
2022/06/24 00:22:04;;;;;;;0.00;0.00;;;19.60;99.90;;;;;;5002320;28;21179;-76
2022/06/24 00:24:35;;;;;;;0.00;0.00;;;19.60;99.90;;;;;;5002176;28;20449;-76
2022/06/24 00:27:04;;;;;;;0.00;0.00;;;19.60;99.90;;;;;;5003995;28;21123;-76
2022/06/24 00:29:33;;;;;;;0.00;0.00;;;19.50;99.90;;;;;;5003465;28;20442;-76
2022/06/24 00:32:03;;;;;;;0.00;0.00;;;19.50;99.90;;;;;;5002131;28;20904;-77
2022/06/24 00:34:31;;;;;;;0.00;0.00;;;19.50;99.90;;;;;;5002195;28;20533;-76
2022/06/24 00:37:19;;;;;;;0.00;0.00;;;19.50;99.90;;;;;;5001889;28;20476;-76
2022/06/24 00:39:48;;;;;;;0.00;0.00;;;19.50;99.90;;;;;;5001062;28;20858;-76
2022/06/24 00:42:17;;;;;;;0.00;0.00;;;19.40;99.90;;;;;;5000034;28;20565;-77
2022/06/24 00:44:50;;;;;;;0.00;0.00;;;19.40;99.90;;;;;;4999602;28;20430;-74
2022/06/24 00:47:20;;;;;;;0.00;0.00;;;19.40;99.90;;;;;;4999047;28;20466;-73
2022/06/24 00:49:49;;;;;;;0.00;0.00;;;19.40;99.90;;;;;;4999561;28;20457;-74
2022/06/24 00:52:17;;;;;;;0.00;0.00;;;19.40;99.90;;;;;;4999348;28;20437;-74
2022/06/24 00:54:45;;;;;;;0.00;0.00;;;19.40;99.90;;;;;;4999345;28;20544;-73
2022/06/24 00:57:15;;;;;;;0.00;0.00;;;19.30;99.90;;;;;;4999129;28;20544;-71
2022/06/24 00:59:42;;;;;;;0.00;0.00;;;19.30;99.90;;;;;;4999499;28;21053;-73
2022/06/24 01:02:11;;;;;;;0.00;0.00;;;19.30;99.90;;;;;;4999247;28;20477;-74
2022/06/24 01:04:39;;;;;;;0.00;0.00;;;19.20;99.90;;;;;;4999746;28;20975;-74
2022/06/24 01:07:07;;;;;;;0.00;0.00;;;19.20;99.90;;;;;;4998725;28;20454;-74
2022/06/24 01:09:35;;;;;;;0.00;0.00;;;19.20;99.90;;;;;;4998749;28;21220;-74
2022/06/24 01:12:03;;;;;;;0.00;0.00;;;19.20;99.90;;;;;;4999035;28;20970;-76
2022/06/24 01:14:32;;;;;;;0.00;0.00;;;19.10;99.90;;;;;;4998764;28;20448;-73
2022/06/24 01:17:00;;;;;;;0.00;0.00;;;19.10;99.90;;;;;;4998673;28;20487;-75
2022/06/24 01:19:28;;;;;;;0.00;0.00;;;19.00;99.90;;;;;;4998774;28;20528;-73
2022/06/24 01:21:57;;;;;;;0.00;0.00;;;19.00;99.90;;;;;;4997880;28;20477;-72
2022/06/24 01:24:26;;;;;;;0.00;0.00;;;19.00;99.90;;;;;;4998989;28;20456;-72
2022/06/24 01:26:55;;;;;;;0.00;0.00;;;18.90;99.90;;;;;;4999189;28;20465;-72
2022/06/24 01:29:23;;;;;;;0.00;0.00;;;18.90;99.90;;;;;;4999126;28;20445;-72
2022/06/24 01:31:53;;;;;;;0.00;0.00;;;18.90;99.90;;;;;;4998315;28;20465;-72
2022/06/24 01:34:22;;;;;;;0.00;0.00;;;18.80;99.90;;;;;;4999429;28;20456;-78
2022/06/24 01:36:51;;;;;;;0.00;0.00;;;18.80;99.90;;;;;;4999223;28;20536;-73
2022/06/24 01:39:21;;;;;;;0.00;0.00;;;18.70;99.90;;;;;;4999484;28;20538;-74
2022/06/24 01:41:49;;;;;;;0.00;0.00;;;18.70;99.90;;;;;;4998160;28;20489;-74
2022/06/24 01:44:17;;;;;;;0.00;0.00;;;18.60;99.90;;;;;;4998340;28;20458;-74
2022/06/24 01:46:45;;;;;;;0.00;0.00;;;18.60;99.90;;;;;;4999022;28;20473;-73
2022/06/24 01:49:13;;;;;;;0.00;0.00;;;18.60;99.90;;;;;;4998475;28;20529;-73
2022/06/24 01:51:43;;;;;;;0.00;0.00;;;18.50;99.90;;;;;;4997986;28;20448;-73
2022/06/24 01:54:12;;;;;;;0.00;0.00;;;18.50;99.90;;;;;;4998693;28;20456;-74
2022/06/24 01:56:42;;;;;;;0.00;0.00;;;18.50;99.90;;;;;;4997489;28;21012;-74
2022/06/24 01:59:14;;;;;;;0.00;0.00;;;18.50;99.90;;;;;;4998322;28;20452;-73
2022/06/24 02:01:42;;;;;;;0.00;0.00;;;18.50;99.90;;;;;;4997537;28;20480;-76
2022/06/24 02:04:11;;;;;;;0.00;0.00;;;18.40;99.90;;;;;;4998246;28;21107;-74
2022/06/24 02:06:38;;;;;;;0.00;0.00;;;18.40;99.90;;;;;;4998452;28;20985;-75
2022/06/24 02:09:07;;;;;;;0.00;0.00;;;18.30;99.90;;;;;;5001966;28;20451;-74
2022/06/24 02:14:23;;;;;;;0.00;0.00;;;18.30;99.90;;;;;;5001994;28;20531;-74
2022/06/24 02:16:52;;;;;;;0.00;0.00;;;18.20;99.90;;;;;;4998869;28;20464;-75
2022/06/24 02:22:20;;;;;;;0.00;0.00;;;18.20;99.90;;;;;;5608887;22;20488;-75
2022/06/24 02:24:48;;;;;;;0.00;0.00;;;18.10;99.90;;;;;;5037599;28;20559;-74
2022/06/24 02:27:16;;;;;;;0.00;0.00;;;18.10;99.90;;;;;;5023881;28;20459;-73
2022/06/24 02:29:45;;;;;;;0.00;0.00;;;18.10;99.90;;;;;;5017068;28;20819;-74
2022/06/24 02:32:12;;;;;;;0.00;0.00;;;18.10;99.90;;;;;;5019825;28;20448;-74
2022/06/24 02:34:40;;;;;;;0.00;0.00;;;18.10;99.90;;;;;;5024069;28;20442;-79
2022/06/24 02:37:08;;;;;;;0.00;0.00;;;18.10;99.90;;;;;;5030155;28;20844;-79
2022/06/24 02:39:36;;;;;;;0.00;0.00;;;18.00;99.90;;;;;;5034913;28;20459;-79
2022/06/24 02:42:04;;;;;;;0.00;0.00;;;18.00;99.90;;;;;;5029161;28;20495;-79
2022/06/24 02:44:32;;;;;;;0.00;0.00;;;18.00;99.90;;;;;;5029512;28;20447;-79
2022/06/24 02:47:01;;;;;;;0.00;0.00;;;18.00;99.90;;;;;;5031416;28;20462;-79
2022/06/24 02:49:29;;;;;;;0.00;0.00;;;18.00;99.90;;;;;;5031922;28;20453;-79
2022/06/24 02:51:57;;;;;;;0.00;0.00;;;18.00;99.90;;;;;;5029936;28;20495;-79
2022/06/24 02:54:24;;;;;;;0.00;0.00;;;17.90;99.90;;;;;;5029535;28;20471;-77
2022/06/24 02:56:52;;;;;;;0.00;0.00;;;18.00;99.90;;;;;;5027335;28;20464;-77
2022/06/24 02:59:21;;;;;;;0.00;0.00;;;18.00;99.90;;;;;;5025043;28;20455;-77
2022/06/24 03:01:48;;;;;;;0.00;0.00;;;18.00;99.90;;;;;;5022554;28;21107;-77
2022/06/24 03:04:18;;;;;;;0.00;0.00;;;18.00;99.90;;;;;;5020997;28;20451;-77
2022/06/24 03:06:46;;;;;;;0.00;0.00;;;18.00;99.90;;;;;;5021108;28;21206;-74
2022/06/24 03:09:13;;;;;;;0.00;0.00;;;18.00;99.90;;;;;;5021502;28;20505;-77
2022/06/24 03:11:41;;;;;;;0.00;0.00;;;18.00;99.90;;;;;;5020895;28;20919;-77
2022/06/24 03:14:09;;;;;;;0.00;0.00;;;18.00;99.90;;;;;;5020100;28;21189;-77
2022/06/24 03:16:37;;;;;;;0.00;0.00;;;18.00;99.90;;;;;;5020990;28;20459;-77
2022/06/24 03:19:05;;;;;;;0.00;0.00;;;18.00;99.90;;;;;;5021111;28;21268;-77
2022/06/24 03:21:34;;;;;;;0.00;0.00;;;18.00;99.90;;;;;;5021110;28;20456;-76
2022/06/24 03:24:02;;;;;;;0.00;0.00;;;18.10;99.90;;;;;;5020545;28;20517;-77
2022/06/24 03:26:30;;;;;;;0.00;0.00;;;18.20;99.90;;;;;;5021541;28;21142;-77
2022/06/24 03:28:57;;;;;;;0.00;0.00;;;18.20;99.90;;;;;;5022039;28;20447;-77
2022/06/24 03:31:25;;;;;;;0.00;0.00;;;18.20;99.90;;;;;;5020717;28;20455;-76
2022/06/24 03:33:55;;;;;;;0.00;0.00;;;18.30;99.90;;;;;;5020516;28;20444;-75
2022/06/24 03:36:23;;;;;;;0.00;0.00;;;18.30;99.90;;;;;;5019830;28;20464;-75
2022/06/24 03:38:52;;;;;;;0.00;0.00;;;18.30;99.90;;;;;;5020301;28;20437;-76
2022/06/24 03:41:20;;;;;;;0.00;0.00;;;18.30;99.90;;;;;;5019759;28;20438;-76
2022/06/24 03:43:47;;;;;;;0.00;0.00;;;18.40;99.90;;;;;;5021138;28;20476;-75
2022/06/24 03:46:15;;;;;;;0.00;0.00;;;18.50;99.90;;;;;;5020123;28;20490;-75
2022/06/24 03:48:43;;;;;;;0.00;0.00;;;18.50;99.90;;;;;;5020290;28;20538;-75
2022/06/24 03:51:11;;;;;;;0.00;0.00;;;18.50;99.90;;;;;;5019936;28;20440;-75
2022/06/24 03:53:39;;;;;;;0.00;0.00;;;18.50;99.90;;;;;;5020982;28;20444;-76
2022/06/24 03:56:10;;;;;;;0.00;0.00;;;18.60;99.90;;;;;;5020773;28;20461;-77
2022/06/24 03:58:38;;;;;;;0.00;0.00;;;18.60;99.90;;;;;;5020396;28;20435;-76
2022/06/24 04:01:05;;;;;;;0.00;0.00;;;18.70;99.90;;;;;;5029241;28;20447;-75
2022/06/24 04:03:33;;;;;;;0.00;0.00;;;18.80;99.90;;;;;;5021989;28;20550;-75
2022/06/24 04:06:01;;;;;;;0.00;0.00;;;18.80;99.90;;;;;;5019577;28;20459;-74
2022/06/24 04:08:29;;;;;;;0.00;0.00;;;18.90;99.90;;;;;;5028181;28;20947;-74
2022/06/24 04:10:57;;;;;;;0.00;0.00;;;18.90;99.90;;;;;;5027125;28;20527;-75
2022/06/24 04:13:26;;;;;;;0.00;0.00;;;18.90;99.90;;;;;;5020384;28;20968;-76
2022/06/24 04:15:55;;;;;;;0.00;0.00;;;18.90;99.90;;;;;;5019723;28;20441;-76
2022/06/24 04:18:23;;;;;;;0.00;0.00;;;18.90;99.90;;;;;;5019429;28;20456;-76
2022/06/24 04:20:51;;;;;;;0.00;0.00;;;19.00;99.90;;;;;;5020730;28;21058;-76
2022/06/24 04:23:19;;;;;;;0.00;0.00;;;19.10;99.90;;;;;;5018978;28;20506;-76
2022/06/24 04:25:47;;;;;;;0.00;0.00;;;19.10;99.90;;;;;;5027646;28;20636;-76
2022/06/24 04:28:15;;;;;;;0.00;0.00;;;19.20;99.90;;;;;;5030020;28;20441;-75
2022/06/24 04:30:45;;;;;;;0.00;0.00;;;19.30;99.90;;;;;;5033107;28;20457;-75
2022/06/24 04:33:12;;;;;;;0.00;0.00;;;19.40;99.90;;;;;;5025879;28;20516;-75
2022/06/24 04:35:41;;;;;;;0.00;0.00;;;19.40;99.90;;;;;;5022051;28;20443;-76
2022/06/24 04:38:09;;;;;;;0.00;0.00;;;19.50;99.90;;;;;;5022133;28;21118;-68
2022/06/24 04:40:36;;;;;;;0.00;0.00;;;19.50;99.90;;;;;;5019994;28;20460;-69
2022/06/24 04:43:04;;;;;;;0.00;0.00;;;19.60;99.90;;;;;;5020385;28;20495;-68
2022/06/24 04:45:32;;;;;;;0.00;0.00;;;19.70;99.90;;;;;;5018916;28;20459;-69
2022/06/24 04:48:02;;;;;;;0.00;0.00;;;19.70;99.90;;;;;;5018670;28;20461;-67
2022/06/24 04:50:30;;;;;;;0.00;0.00;;;19.90;99.90;;;;;;5020367;28;20806;-67
2022/06/24 04:52:58;;;;;;;0.00;0.00;;;19.90;99.90;;;;;;5018993;28;20528;-68
2022/06/24 04:55:26;;;;;;;0.00;0.00;;;19.90;99.90;;;;;;5018759;28;20476;-67
2022/06/24 04:57:54;;;;;;;0.00;0.00;;;20.00;99.90;;;;;;5027282;28;20461;-67
2022/06/24 05:00:22;;;;;;;0.00;0.00;;;20.00;99.90;;;;;;5018358;28;20456;-67
2022/06/24 05:02:50;;;;;;;0.00;0.00;;;20.00;99.90;;;;;;5017931;28;20441;-70
2022/06/24 05:05:19;;;;;;;0.00;0.00;;;20.10;99.90;;;;;;5018187;28;20659;-67
2022/06/24 05:07:47;;;;;;;0.00;0.00;;;20.20;99.90;;;;;;5018215;28;20658;-69
2022/06/24 05:10:15;;;;;;;0.00;0.00;;;20.20;99.90;;;;;;5017564;28;21169;-68
2022/06/24 05:12:43;;;;;;;0.00;0.00;;;20.40;99.90;;;;;;5017524;28;20918;-68
2022/06/24 05:15:11;;;;;;;0.00;0.00;;;20.40;99.90;;;;;;5017331;28;20449;-67
2022/06/24 05:17:39;;;;;;;0.00;0.00;;;20.40;99.90;;;;;;5017863;28;20465;-68
2022/06/24 05:20:08;;;;;;;0.00;0.00;;;20.50;99.90;;;;;;5018439;28;20437;-69
2022/06/24 05:22:42;;;;;;;0.00;0.00;;;20.60;99.90;;;;;;5017877;28;20504;-67
2022/06/24 05:25:10;;;;;;;0.00;0.00;;;20.60;99.90;;;;;;5017798;28;20867;-67
2022/06/24 05:27:38;;;;;;;0.00;0.00;;;20.70;99.90;;;;;;5017939;28;20499;-66
2022/06/24 05:30:07;;;;;;;0.00;0.00;;;20.90;99.90;;;;;;5024763;28;20519;-69
2022/06/24 05:32:35;;;;;;;0.00;0.00;;;21.20;99.90;;;;;;5021806;28;20927;-68
2022/06/24 05:35:05;;;;;;;0.00;0.00;;;21.50;99.90;;;;;;5019145;28;20445;-68
2022/06/24 05:37:34;;;;;;;0.00;0.00;;;21.80;99.90;;;;;;5018608;28;20460;-68
2022/06/24 05:40:04;;;;;;;0.00;0.00;;;21.80;99.90;;;;;;5018214;28;20455;-70
2022/06/24 05:42:32;;;;;;;0.00;0.00;;;21.80;99.90;;;;;;5018021;28;20833;-68
2022/06/24 05:45:00;;;;;;;0.00;0.00;;;21.80;99.90;;;;;;5017021;28;20499;-68
2022/06/24 05:47:28;;;;;;;0.00;0.00;;;21.70;99.90;;;;;;5017113;28;20522;-68
2022/06/24 05:49:56;;;;;;;0.00;0.00;;;21.70;99.90;;;;;;5016968;28;20445;-67
2022/06/24 05:55:08;;;;;;;0.00;0.00;;;21.70;99.90;;;;;;5009943;28;20481;-68
2022/06/24 06:00:16;;;;;;;0.00;0.00;;;21.70;99.90;;;;;;5230820;22;21353;-73
2022/06/24 06:02:44;;;;;;;0.00;0.00;;;21.70;99.90;;;;;;4998356;28;20430;-75
2022/06/24 06:05:13;;;;;;;0.00;0.00;;;21.80;99.90;;;;;;4998887;28;20802;-77
2022/06/24 06:07:41;;;;;;;0.00;0.00;;;21.80;99.90;;;;;;5000949;28;20471;-76
2022/06/24 06:10:11;;;;;;;0.00;0.00;;;21.90;99.90;;;;;;5002076;28;20524;-76
2022/06/24 06:12:39;;;;;;;0.00;0.00;;;21.90;99.90;;;;;;5001466;28;20506;-76
2022/06/24 06:15:08;;;;;;;0.00;0.00;;;22.00;99.90;;;;;;5001936;28;20449;-75
2022/06/24 06:17:36;;;;;;;0.00;0.00;;;22.00;99.90;;;;;;5001724;28;20462;-75
2022/06/24 06:20:05;;;;;;;0.00;0.00;;;22.10;99.90;;;;;;5001872;28;20761;-74
2022/06/24 06:22:33;;;;;;;0.00;0.00;;;22.20;99.90;;;;;;4999217;28;20997;-75
2022/06/24 06:25:01;;;;;;;0.00;0.00;;;22.30;99.90;;;;;;4988701;28;20483;-74
2022/06/24 06:27:31;;;;;;;0.00;0.00;;;22.40;99.90;;;;;;4995975;28;20511;-75
2022/06/24 06:29:59;;;;;;;0.00;0.00;;;22.40;99.90;;;;;;4986862;28;20450;-73
2022/06/24 06:32:29;;;;;;;0.00;0.00;;;22.50;99.90;;;;;;4981995;28;21040;-74
2022/06/24 06:35:01;;;;;;;0.00;0.00;;;22.50;99.90;;;;;;4981558;28;20553;-75
2022/06/24 06:37:29;;;;;;;0.00;0.00;;;22.50;99.90;;;;;;4981879;28;20480;-74
2022/06/24 06:39:57;;;;;;;0.00;0.00;;;22.60;99.90;;;;;;4981763;28;20523;-74
2022/06/24 06:42:25;;;;;;;0.00;0.00;;;22.70;99.90;;;;;;4981819;28;20436;-73
2022/06/24 06:45:00;;;;;;;0.00;0.00;;;22.70;99.90;;;;;;4982551;28;20487;-74
2022/06/24 06:47:28;;;;;;;0.00;0.00;;;22.90;99.90;;;;;;4989833;28;20581;-74
2022/06/24 06:49:55;;;;;;;0.00;0.00;;;23.00;99.90;;;;;;4984324;28;20548;-75
2022/06/24 06:52:23;;;;;;;0.00;0.00;;;23.20;99.90;;;;;;4992647;28;20545;-77
2022/06/24 06:54:51;;;;;;;0.00;0.00;;;23.40;99.90;;;;;;4991167;28;20481;-72
2022/06/24 06:57:19;;;;;;;0.00;0.00;;;23.50;99.90;;;;;;4991211;28;20482;-74
2022/06/24 06:59:49;;;;;;;0.00;0.00;;;23.60;99.90;;;;;;4996218;28;20630;-72
2022/06/24 07:02:18;;;;;;;0.00;0.00;;;23.70;99.90;;;;;;4992101;28;20475;-72
2022/06/24 07:04:46;;;;;;;0.00;0.00;;;23.70;99.90;;;;;;4990171;28;20778;-72
2022/06/24 07:07:14;;;;;;;0.00;0.00;;;23.70;99.90;;;;;;4982859;28;20522;-71
2022/06/24 07:09:43;;;;;;;0.00;0.00;;;23.80;99.90;;;;;;4994137;28;20454;-72
2022/06/24 07:12:10;;;;;;;0.00;0.00;;;23.90;99.90;;;;;;4995788;28;20449;-72
2022/06/24 07:14:41;;;;;;;0.00;0.00;;;24.00;99.90;;;;;;4980043;28;20459;-72
2022/06/24 07:17:14;;;;;;;0.00;0.00;;;24.10;99.90;;;;;;4986495;28;20481;-72
2022/06/24 07:19:44;;;;;;;0.00;0.00;;;24.10;99.90;;;;;;4988257;28;20758;-72
2022/06/24 07:22:12;;;;;;;0.00;0.00;;;24.10;99.90;;;;;;4993222;28;20463;-72
2022/06/24 07:24:40;;;;;;;0.00;0.00;;;24.20;99.90;;;;;;4983860;28;20569;-74
2022/06/24 07:27:09;;;;;;;0.00;0.00;;;24.20;99.90;;;;;;4982795;28;20473;-75
2022/06/24 07:29:38;;;;;;;0.00;0.00;;;24.20;99.90;;;;;;4999999;28;20816;-74
2022/06/24 07:32:07;;;;;;;0.00;0.00;;;24.30;99.90;;;;;;5000001;28;20440;-74
2022/06/24 07:34:35;;;;;;;0.00;0.00;;;24.40;99.90;;;;;;4999956;28;20511;-76
2022/06/24 07:37:05;;;;;;;0.00;0.00;;;24.50;99.90;;;;;;4999725;28;20546;-74
2022/06/24 07:39:33;;;;;;;0.00;0.00;;;24.60;99.90;;;;;;4994851;28;21135;-72
2022/06/24 07:42:02;;;;;;;0.00;0.00;;;24.70;99.90;;;;;;4982092;28;20457;-72
2022/06/24 07:44:30;;;;;;;0.00;0.00;;;24.70;99.90;;;;;;4993074;28;20492;-72
2022/06/24 07:46:59;;;;;;;0.00;0.00;;;24.90;99.90;;;;;;4982391;28;20553;-72
2022/06/24 07:49:27;;;;;;;0.00;0.00;;;25.00;99.90;;;;;;4998048;28;20536;-72
2022/06/24 07:51:55;;;;;;;0.00;0.00;;;25.10;99.90;;;;;;4996518;28;20484;-72
2022/06/24 07:54:24;;;;;;;0.00;0.00;;;25.20;99.90;;;;;;4999422;28;20463;-72
2022/06/24 07:56:58;;;;;;;0.00;0.00;;;25.20;99.90;;;;;;4999094;28;20477;-73
2022/06/24 07:59:27;;;;;;;0.00;0.00;;;25.30;99.90;;;;;;4999489;28;20487;-72
2022/06/24 08:01:57;;;;;;;0.00;0.00;;;25.40;99.90;;;;;;4999912;28;20453;-73
2022/06/24 08:04:26;;;;;;;0.00;0.00;;;25.50;99.90;;;;;;5003482;28;20732;-72
2022/06/24 08:06:58;;;;;;;0.00;0.00;;;25.50;99.90;;;;;;5000169;28;20497;-73
2022/06/24 08:09:32;;;;;;;0.00;0.00;;;25.60;99.90;;;;;;5000363;28;20445;-72
2022/06/24 08:12:00;;;;;;;0.00;0.00;;;25.60;99.90;;;;;;5000032;28;20437;-72
2022/06/24 08:14:28;;;;;;;0.00;0.00;;;25.70;99.90;;;;;;4989738;28;20477;-72
2022/06/24 08:16:56;;;;;;;0.00;0.00;;;25.70;99.90;;;;;;4998638;28;20560;-72
2022/06/24 08:19:24;;;;;;;0.00;0.00;;;25.70;99.90;;;;;;4989329;28;20447;-72
2022/06/24 08:21:52;;;;;;;0.00;0.00;;;25.80;99.90;;;;;;5000317;28;20446;-73
2022/06/24 08:24:20;;;;;;;0.00;0.00;;;25.90;99.90;;;;;;5000368;28;21163;-72
2022/06/24 08:26:50;;;;;;;0.00;0.00;;;25.90;99.90;;;;;;5000192;28;20921;-74
2022/06/24 08:29:18;;;;;;;0.00;0.00;;;26.10;99.90;;;;;;5000085;28;20440;-72
2022/06/24 08:31:46;;;;;;;0.00;0.00;;;26.20;99.90;;;;;;5002596;28;20431;-73
2022/06/24 08:34:15;;;;;;;0.00;0.00;;;26.20;99.90;;;;;;4999711;28;21118;-74
2022/06/24 08:36:43;;;;;;;0.00;0.00;;;26.30;99.90;;;;;;4993455;28;21109;-73
2022/06/24 08:39:11;;;;;;;0.00;0.00;;;26.30;99.90;;;;;;4989041;28;21147;-74
2022/06/24 08:41:41;;;;;;;0.00;0.00;;;26.40;99.90;;;;;;4995810;28;20460;-74
2022/06/24 08:44:13;;;;;;;0.00;0.00;;;26.40;99.90;;;;;;4995598;28;20464;-74
2022/06/24 08:46:41;;;;;;;0.00;0.00;;;26.50;99.90;;;;;;4990635;28;20497;-72
2022/06/24 08:49:09;;;;;;;0.00;0.00;;;26.60;99.90;;;;;;4979263;28;20468;-72
2022/06/24 08:51:38;;;;;;;0.00;0.00;;;26.70;99.90;;;;;;4993385;28;20467;-72
2022/06/24 08:54:08;;;;;;;0.00;0.00;;;26.80;99.90;;;;;;4998677;28;20438;-73
2022/06/24 08:56:52;;;;;;;0.00;0.00;;;26.90;99.90;;;;;;4997722;28;20806;-72
2022/06/24 08:59:21;;;;;;;0.00;0.00;;;27.00;99.90;;;;;;4994386;28;20802;-72
2022/06/24 09:01:50;;;;;;;0.00;0.00;;;27.10;99.90;;;;;;4981007;28;20550;-72
2022/06/24 09:04:18;;;;;;;0.00;0.00;;;27.10;99.90;;;;;;4984030;28;20545;-72
2022/06/24 09:06:46;;;;;;;0.00;0.00;;;27.10;99.90;;;;;;4997290;28;20580;-72
2022/06/24 09:09:23;;;;;;;0.00;0.00;;;27.20;99.90;;;;;;4986751;28;20468;-75
2022/06/24 09:11:54;;;;;;;0.00;0.00;;;27.20;99.90;;;;;;4997798;28;20570;-74
2022/06/24 09:14:24;;;;;;;0.00;0.00;;;27.30;99.90;;;;;;4983846;28;21031;-73
2022/06/24 09:16:52;;;;;;;0.00;0.00;;;27.40;99.90;;;;;;4991162;28;20470;-73
2022/06/24 09:19:24;;;;;;;0.00;0.00;;;27.50;99.90;;;;;;4987249;28;21006;-75
2022/06/24 09:21:59;;;;;;;0.00;0.00;;;27.60;99.90;;;;;;4981715;28;20450;-77
2022/06/24 09:24:44;;;;;;;0.00;0.00;;;27.80;99.90;;;;;;4996012;28;20460;-76
2022/06/24 09:27:12;;;;;;;0.00;0.00;;;27.90;99.90;;;;;;4981033;28;20961;-75
2022/06/24 09:29:49;;;;;;;0.00;0.00;;;27.90;99.90;;;;;;4991396;28;20497;-75
2022/06/24 09:32:17;;;;;;;0.00;0.00;;;28.00;99.90;;;;;;4978798;28;20547;-75
2022/06/24 09:34:59;;;;;;;0.00;0.00;;;28.10;99.90;;;;;;4981418;28;20539;-75
2022/06/24 09:37:39;;;;;;;0.00;0.00;;;28.20;99.90;;;;;;4988097;28;20549;-76
2022/06/24 09:40:23;;;;;;;0.00;0.00;;;28.30;99.90;;;;;;4988878;28;20457;-76
2022/06/24 09:42:56;;;;;;;0.00;0.00;;;28.40;99.90;;;;;;4988565;28;20730;-74
2022/06/24 09:45:27;;;;;;;0.00;0.00;;;28.50;99.90;;;;;;4982439;28;20459;-74
2022/06/24 09:47:57;;;;;;;0.00;0.00;;;28.60;99.90;;;;;;4987631;28;20469;-75
2022/06/24 09:50:25;;;;;;;0.00;0.00;;;28.70;99.90;;;;;;4977948;28;20445;-74
2022/06/24 09:52:54;;;;;;;0.00;0.00;;;28.90;99.90;;;;;;4985065;28;20459;-74
2022/06/24 09:55:26;;;;;;;0.00;0.00;;;28.90;99.90;;;;;;4977213;28;20451;-73
2022/06/24 09:57:55;;;;;;;0.00;0.00;;;29.00;99.90;;;;;;4984874;28;20544;-74
2022/06/24 10:00:41;;;;;;;0.00;0.00;;;29.10;99.90;;;;;;4995809;28;20585;-75
2022/06/24 10:03:12;;;;;;;0.00;0.00;;;29.10;99.90;;;;;;4992841;28;20720;-74
2022/06/24 10:05:42;;;;;;;0.00;0.00;;;29.30;99.90;;;;;;4995482;28;20445;-74
2022/06/24 10:08:12;;;;;;;0.00;0.00;;;29.40;99.90;;;;;;4995108;28;20491;-75
2022/06/24 10:10:46;;;;;;;0.00;0.00;;;29.50;99.90;;;;;;4995805;28;20449;-74
2022/06/24 10:13:25;;;;;;;0.00;0.00;;;29.50;99.90;;;;;;4993573;28;20449;-75
2022/06/24 10:15:54;;;;;;;0.00;0.00;;;29.50;99.90;;;;;;4990731;28;20946;-75
2022/06/24 10:18:26;;;;;;;0.00;0.00;;;29.50;99.90;;;;;;4991659;28;20584;-75
2022/06/24 10:20:59;;;;;;;0.00;0.00;;;29.60;99.90;;;;;;4995319;28;20438;-74
2022/06/24 10:23:41;;;;;;;0.00;0.00;;;29.70;99.90;;;;;;4996088;28;20537;-74
2022/06/24 10:26:17;;;;;;;0.00;0.00;;;29.70;99.90;;;;;;4993672;28;20492;-75
2022/06/24 10:29:28;;;;;;;0.00;0.00;;;29.70;99.90;;;;;;4996813;28;20584;-75
2022/06/24 10:32:10;;;;;;;0.00;0.00;;;29.90;99.90;;;;;;4995791;28;20641;-76
2022/06/24 10:34:45;;;;;;;0.00;0.00;;;29.90;99.90;;;;;;4992806;28;20979;-74
2022/06/24 10:37:30;;;;;;;0.00;0.00;;;30.00;99.90;;;;;;4995055;28;20489;-74
2022/06/24 10:40:00;;;;;;;0.00;0.00;;;30.10;99.90;;;;;;4989696;28;20477;-75
2022/06/24 10:42:30;;;;;;;0.00;0.00;;;30.10;99.90;;;;;;4993281;28;20461;-74
2022/06/24 10:45:03;;;;;;;0.00;0.00;;;30.10;99.90;;;;;;4991461;28;20442;-75
2022/06/24 10:47:41;;;;;;;0.00;0.00;;;30.10;99.90;;;;;;4995487;28;20492;-75
2022/06/24 10:50:21;;;;;;;0.00;0.00;;;30.20;99.90;;;;;;4983003;28;20475;-75
2022/06/24 10:53:04;;;;;;;0.00;0.00;;;30.40;99.90;;;;;;4985350;28;20454;-74
2022/06/24 10:55:36;;;;;;;0.00;0.00;;;30.40;99.90;;;;;;4981793;28;20502;-74
2022/06/24 10:58:07;;;;;;;0.00;0.00;;;30.20;99.90;;;;;;4993410;28;20492;-75
2022/06/24 11:00:53;;;;;;;0.00;0.00;;;30.30;99.90;;;;;;4995404;28;20553;-74
2022/06/24 11:03:33;;;;;;;0.00;0.00;;;30.40;99.90;;;;;;4987488;28;20512;-74
2022/06/24 11:06:03;;;;;;;0.00;0.00;;;30.50;99.90;;;;;;4986288;28;20476;-74
2022/06/24 11:08:31;;;;;;;0.00;0.00;;;30.50;99.90;;;;;;4990747;28;20577;-74
2022/06/24 11:10:58;;;;;;;0.00;0.00;;;30.50;99.90;;;;;;4990848;28;20981;-74
2022/06/24 11:13:30;;;;;;;0.00;0.00;;;30.70;99.90;;;;;;4999063;28;20454;-74
2022/06/24 11:15:59;;;;;;;0.00;0.00;;;30.70;99.90;;;;;;4993133;28;20474;-74
2022/06/24 11:18:30;;;;;;;0.00;0.00;;;30.70;99.90;;;;;;4996088;28;20529;-75
2022/06/24 11:21:00;;;;;;;0.00;0.00;;;30.70;99.90;;;;;;4984706;28;20482;-74
2022/06/24 11:23:31;;;;;;;0.00;0.00;;;30.70;99.90;;;;;;4984201;28;20520;-74
2022/06/24 11:26:02;;;;;;;0.00;0.00;;;30.80;99.90;;;;;;4991790;28;20550;-73
2022/06/24 11:28:33;;;;;;;0.00;0.00;;;30.80;99.90;;;;;;4986213;28;20768;-73
2022/06/24 11:31:20;;;;;;;0.00;0.00;;;31.00;99.90;;;;;;4981460;28;20784;-74
2022/06/24 11:33:50;;;;;;;0.00;0.00;;;31.00;99.90;;;;;;4983166;28;20743;-78
2022/06/24 11:36:21;;;;;;;0.00;0.00;;;31.10;99.90;;;;;;4998709;28;20476;-74
2022/06/24 11:38:56;;;;;;;0.00;0.00;;;31.20;99.90;;;;;;4981074;28;20450;-75
2022/06/24 11:41:26;;;;;;;0.00;0.00;;;31.20;99.90;;;;;;4981160;28;20556;-77
2022/06/24 11:44:14;;;;;;;0.00;0.00;;;31.20;99.90;;;;;;4997597;28;20561;-78
2022/06/24 11:46:49;;;;;;;0.00;0.00;;;31.20;99.90;;;;;;4985604;28;20482;-78
2022/06/24 11:49:21;;;;;;;0.00;0.00;;;31.20;99.90;;;;;;4999107;28;20541;-80
2022/06/24 11:51:50;;;;;;;0.00;0.00;;;31.30;99.90;;;;;;5001327;28;20434;-77
2022/06/24 11:54:25;;;;;;;0.00;0.00;;;31.40;99.90;;;;;;4999235;28;21177;-77
2022/06/24 11:56:53;;;;;;;0.00;0.00;;;31.50;99.90;;;;;;5000944;28;20480;-76
2022/06/24 11:59:22;;;;;;;0.00;0.00;;;31.50;99.90;;;;;;5001762;28;20553;-82
2022/06/24 12:01:52;;;;;;;0.00;0.00;;;31.50;99.70;;;;;;5009902;28;20458;-84
2022/06/24 12:04:23;;;;;;;0.00;0.00;;;31.70;99.40;;;;;;5008224;28;20488;-80
2022/06/24 12:07:02;;;;;;;0.00;0.00;;;31.80;99.40;;;;;;5000799;28;20511;-74
2022/06/24 12:09:34;;;;;;;0.00;0.00;;;31.80;99.50;;;;;;5000142;28;20444;-73
2022/06/24 12:12:12;;;;;;;0.00;0.00;;;31.90;99.30;;;;;;4999462;28;21097;-72
2022/06/24 12:14:41;;;;;;;0.00;0.00;;;31.90;98.80;;;;;;4999929;28;20441;-72
2022/06/24 12:17:10;;;;;;;0.00;0.00;;;31.90;98.80;;;;;;4999857;28;20554;-72
2022/06/24 12:19:55;;;;;;;0.00;0.00;;;31.80;98.10;;;;;;4999058;28;21027;-73
2022/06/24 12:22:26;;;;;;;0.00;0.00;;;31.60;97.60;;;;;;4984267;28;20474;-73
2022/06/24 12:25:02;;;;;;;0.00;0.00;;;31.30;97.80;;;;;;4980925;28;20541;-73
2022/06/24 12:27:40;;;;;;;0.00;0.00;;;31.20;98.00;;;;;;4979368;28;20997;-72
2022/06/24 12:30:20;;;;;;;0.00;0.00;;;30.90;99.30;;;;;;4979677;28;20549;-72
2022/06/24 12:32:49;;;;;;;0.00;0.00;;;30.60;99.90;;;;;;4992225;28;21100;-73
2022/06/24 12:35:30;;;;;;;0.00;0.00;;;30.30;99.90;;;;;;4979797;28;20809;-72
2022/06/24 12:37:58;;;;;;;0.00;0.00;;;30.00;99.90;;;;;;4990749;28;20492;-73
2022/06/24 12:40:27;;;;;;;0.00;0.00;;;29.40;99.90;;;;;;4989868;28;20477;-72
2022/06/24 12:43:06;;;;;;;0.00;0.00;;;29.00;99.90;;;;;;4990488;28;20463;-76
2022/06/24 12:45:36;;;;;;;0.00;0.00;;;28.70;99.90;;;;;;4979404;28;20438;-73
2022/06/24 12:50:58;;;;;;;0.00;0.00;;;28.30;99.90;;;;;;4990698;28;20452;-74
2022/06/24 12:53:27;;;;;;;0.00;0.00;;;28.00;99.90;;;;;;4990112;28;20534;-74
2022/06/24 12:55:56;;;;;;;0.00;0.00;;;27.70;99.90;;;;;;4979498;28;20943;-74
2022/06/24 12:58:24;;;;;;;0.00;0.00;;;27.50;99.90;;;;;;4988939;28;20449;-74
2022/06/24 13:00:52;;;;;;;0.00;0.00;;;27.40;99.90;;;;;;4981355;28;20473;-74
2022/06/24 13:03:20;;;;;;;0.00;0.00;;;27.40;99.90;;;;;;4987801;28;21143;-74
2022/06/24 13:05:51;;;;;;;0.00;0.00;;;27.30;99.90;;;;;;4998537;28;20464;-74
2022/06/24 13:08:22;;;;;;;0.00;0.00;;;27.30;99.90;;;;;;4998962;28;20541;-74
2022/06/24 13:10:50;;;;;;;0.00;0.00;;;27.30;99.90;;;;;;4992482;28;20473;-73
2022/06/24 13:13:20;;;;;;;0.00;0.00;;;27.30;99.90;;;;;;4994346;28;20456;-74
2022/06/24 13:15:48;;;;;;;0.00;0.00;;;27.30;99.90;;;;;;4986110;28;21030;-73
2022/06/24 13:18:16;;;;;;;0.00;0.00;;;27.40;99.90;;;;;;4994534;28;21133;-75